KEUG

Mahlon Sweet Field Airport

Eugene, Oregon, USA
METAR KEUG 161016Z AUTO 16003KT 3/4SM R16R/3500VP6000FT BR VV002 M02/M02 A3039 RMK AO2 T10171017
Observed Flight Rules
Dec-16 @ 10:16 UTC (33 minutes ago) Instrument Flight Rules
Wind Visibility Clouds Conditions
160° at 3 knots 3/4 miles
  • Vertical visibility at 200' AGL
  • Mist
Temperatures Readings
Current -2°C / 28°F
Dewpoint -2°C / 28°F
Humidity 100%
Altimeter 30.39" Hg
Pressure 1029 hPa
Elevation 114
METAR KEUG 161016Z AUTO 16003KT 3/4SM R16R/3500VP6000FT BR VV002 M02/M02 A3039 RMK AO2 T10171017
Observed Flight Rules
Dec-16 @ 10:16 UTC
(33 minutes ago)
LIFR
Wind Visibility
160° at 3 knots 3/4 miles
Clouds
  • Vertical visibility at 200' AGL
Conditions
  • Mist
Temperature Dewpoint
-2°C / 28°F -2°C / 28°F
Humidity Altimeter Pressure
100% 30.39" Hg 1029 hPa